sensor_id;sensor_type;location;lat;lon;timestamp;pressure;altitude;pressure_sealevel;temperature;humidity
4410;BME280;2218;51.408;7.208;2024-03-02T00:01:41;98289.63;;;18.59;37.26
4410;BME280;2218;51.408;7.208;2024-03-02T00:04:09;98276.63;;;18.58;37.09
4410;BME280;2218;51.408;7.208;2024-03-02T00:06:38;98278.28;;;18.59;37.24
4410;BME280;2218;51.408;7.208;2024-03-02T00:09:05;98275.78;;;18.57;36.96
4410;BME280;2218;51.408;7.208;2024-03-02T00:11:35;98282.03;;;18.56;37.19
4410;BME280;2218;51.408;7.208;2024-03-02T00:14:03;98279.41;;;18.56;37.05
4410;BME280;2218;51.408;7.208;2024-03-02T00:16:31;98280.22;;;18.57;37.21
4410;BME280;2218;51.408;7.208;2024-03-02T00:19:02;98277.75;;;18.55;37.34
4410;BME280;2218;51.408;7.208;2024-03-02T00:21:31;98274.28;;;18.55;37.39
4410;BME280;2218;51.408;7.208;2024-03-02T00:24:01;98269.97;;;18.54;37.35
4410;BME280;2218;51.408;7.208;2024-03-02T00:26:31;98280.50;;;18.54;37.37
4410;BME280;2218;51.408;7.208;2024-03-02T00:28:59;98284.91;;;18.53;37.38
4410;BME280;2218;51.408;7.208;2024-03-02T00:31:26;98283.25;;;18.52;37.05
4410;BME280;2218;51.408;7.208;2024-03-02T00:33:53;98286.72;;;18.53;37.15
4410;BME280;2218;51.408;7.208;2024-03-02T00:36:24;98292.97;;;18.52;37.33
4410;BME280;2218;51.408;7.208;2024-03-02T00:38:54;98285.22;;;18.50;37.08
4410;BME280;2218;51.408;7.208;2024-03-02T00:41:26;98285.22;;;18.50;37.42
4410;BME280;2218;51.408;7.208;2024-03-02T00:43:58;98284.38;;;18.50;37.47
4410;BME280;2218;51.408;7.208;2024-03-02T00:46:29;98285.31;;;18.49;37.26
4410;BME280;2218;51.408;7.208;2024-03-02T00:48:59;98276.59;;;18.48;37.48
4410;BME280;2218;51.408;7.208;2024-03-02T00:51:29;98275.78;;;18.48;37.31
4410;BME280;2218;51.408;7.208;2024-03-02T00:54:00;98268.03;;;18.46;37.40
4410;BME280;2218;51.408;7.208;2024-03-02T00:56:32;98266.22;;;18.47;37.44
4410;BME280;2218;51.408;7.208;2024-03-02T00:59:00;98267.22;;;18.46;37.25
4410;BME280;2218;51.408;7.208;2024-03-02T01:01:27;98264.56;;;18.46;37.41
4410;BME280;2218;51.408;7.208;2024-03-02T01:03:54;98262.88;;;18.45;37.57
4410;BME280;2218;51.408;7.208;2024-03-02T01:06:21;98258.59;;;18.44;37.65
4410;BME280;2218;51.408;7.208;2024-03-02T01:08:48;98259.44;;;18.44;37.45
4410;BME280;2218;51.408;7.208;2024-03-02T01:11:17;98256.94;;;18.43;37.27
4410;BME280;2218;51.408;7.208;2024-03-02T01:13:46;98246.41;;;18.43;37.23
4410;BME280;2218;51.408;7.208;2024-03-02T01:16:13;98250.03;;;18.42;37.67
4410;BME280;2218;51.408;7.208;2024-03-02T01:18:42;98251.69;;;18.43;37.69
4410;BME280;2218;51.408;7.208;2024-03-02T01:21:09;98254.47;;;18.41;37.57
4410;BME280;2218;51.408;7.208;2024-03-02T01:23:36;98258.88;;;18.41;37.52
4410;BME280;2218;51.408;7.208;2024-03-02T01:26:03;98262.47;;;18.40;37.43
4410;BME280;2218;51.408;7.208;2024-03-02T01:28:30;98254.56;;;18.40;37.62
4410;BME280;2218;51.408;7.208;2024-03-02T01:30:58;98246.69;;;18.40;37.51
4410;BME280;2218;51.408;7.208;2024-03-02T01:33:25;98249.31;;;18.40;37.54
4410;BME280;2218;51.408;7.208;2024-03-02T01:35:52;98250.28;;;18.39;37.26
4410;BME280;2218;51.408;7.208;2024-03-02T01:38:19;98248.63;;;18.38;37.39
4410;BME280;2218;51.408;7.208;2024-03-02T01:40:47;98250.44;;;18.37;37.95
4410;BME280;2218;51.408;7.208;2024-03-02T01:43:14;98253.22;;;18.36;37.66
4410;BME280;2218;51.408;7.208;2024-03-02T01:45:41;98238.38;;;18.34;37.83
4410;BME280;2218;51.408;7.208;2024-03-02T01:48:10;98242.69;;;18.36;37.62
4410;BME280;2218;51.408;7.208;2024-03-02T01:50:37;98241.00;;;18.34;37.22
4410;BME280;2218;51.408;7.208;2024-03-02T01:53:05;98241.00;;;18.34;37.33
4410;BME280;2218;51.408;7.208;2024-03-02T01:55:32;98247.22;;;18.33;37.48
4410;BME280;2218;51.408;7.208;2024-03-02T01:58:00;98236.72;;;18.33;37.52
4410;BME280;2218;51.408;7.208;2024-03-02T02:00:28;98243.63;;;18.34;37.65
4410;BME280;2218;51.408;7.208;2024-03-02T02:02:55;98231.44;;;18.33;37.40
4410;BME280;2218;51.408;7.208;2024-03-02T02:05:24;98250.84;;;18.32;37.40
4410;BME280;2218;51.408;7.208;2024-03-02T02:07:51;98246.56;;;18.31;37.38
4410;BME280;2218;51.408;7.208;2024-03-02T02:10:18;98241.28;;;18.31;37.63
4410;BME280;2218;51.408;7.208;2024-03-02T02:12:46;98234.22;;;18.32;37.58
4410;BME280;2218;51.408;7.208;2024-03-02T02:15:23;98233.41;;;18.31;37.54
4410;BME280;2218;51.408;7.208;2024-03-02T02:17:51;98234.38;;;18.30;37.90
4410;BME280;2218;51.408;7.208;2024-03-02T02:20:18;98226.50;;;18.30;37.65
4410;BME280;2218;51.408;7.208;2024-03-02T02:22:58;98224.78;;;18.29;37.87
4410;BME280;2218;51.408;7.208;2024-03-02T02:25:26;98232.69;;;18.29;37.42
4410;BME280;2218;51.408;7.208;2024-03-02T02:27:54;98230.91;;;18.30;37.42
4410;BME280;2218;51.408;7.208;2024-03-02T02:30:23;98223.13;;;18.28;37.41
4410;BME280;2218;51.408;7.208;2024-03-02T02:32:50;98229.22;;;18.29;37.54
4410;BME280;2218;51.408;7.208;2024-03-02T02:35:17;98228.41;;;18.28;37.38
4410;BME280;2218;51.408;7.208;2024-03-02T02:37:46;98224.13;;;18.27;37.69
4410;BME280;2218;51.408;7.208;2024-03-02T02:40:15;98237.25;;;18.27;37.84
4410;BME280;2218;51.408;7.208;2024-03-02T02:42:44;98226.75;;;18.27;37.45
4410;BME280;2218;51.408;7.208;2024-03-02T02:45:11;98231.19;;;18.27;37.39
4410;BME280;2218;51.408;7.208;2024-03-02T02:47:40;98227.72;;;18.26;37.57
4410;BME280;2218;51.408;7.208;2024-03-02T02:50:09;98219.84;;;18.26;37.53
4410;BME280;2218;51.408;7.208;2024-03-02T02:52:37;98216.38;;;18.26;37.66
4410;BME280;2218;51.408;7.208;2024-03-02T02:55:07;98218.19;;;18.25;37.63
4410;BME280;2218;51.408;7.208;2024-03-02T02:57:38;98219.00;;;18.26;37.62
4410;BME280;2218;51.408;7.208;2024-03-02T03:00:07;98221.63;;;18.26;37.58
4410;BME280;2218;51.408;7.208;2024-03-02T03:02:40;98224.78;;;18.29;37.77
4410;BME280;2218;51.408;7.208;2024-03-02T03:05:09;98230.63;;;18.33;37.51
4410;BME280;2218;51.408;7.208;2024-03-02T03:07:36;98225.94;;;18.37;37.35
4410;BME280;2218;51.408;7.208;2024-03-02T03:10:07;98229.97;;;18.41;37.12
4410;BME280;2218;51.408;7.208;2024-03-02T03:12:36;98220.13;;;18.43;37.21
4410;BME280;2218;51.408;7.208;2024-03-02T03:15:04;98226.91;;;18.45;37.11
4410;BME280;2218;51.408;7.208;2024-03-02T03:17:32;98217.91;;;18.48;37.27
4410;BME280;2218;51.408;7.208;2024-03-02T03:19:59;98221.25;;;18.50;37.18
4410;BME280;2218;51.408;7.208;2024-03-02T03:22:27;98204.50;;;18.51;37.03
4410;BME280;2218;51.408;7.208;2024-03-02T03:24:54;98220.97;;;18.53;37.15
4410;BME280;2218;51.408;7.208;2024-03-02T03:27:21;98221.66;;;18.55;37.02
4410;BME280;2218;51.408;7.208;2024-03-02T03:29:50;98220.69;;;18.56;37.10
4410;BME280;2218;51.408;7.208;2024-03-02T03:32:17;98216.25;;;18.56;37.09
4410;BME280;2218;51.408;7.208;2024-03-02T03:34:44;98217.09;;;18.57;37.19
4410;BME280;2218;51.408;7.208;2024-03-02T03:37:11;98216.13;;;18.58;37.01
4410;BME280;2218;51.408;7.208;2024-03-02T03:39:38;98217.91;;;18.57;36.99
4410;BME280;2218;51.408;7.208;2024-03-02T03:42:05;98222.19;;;18.58;36.88
4410;BME280;2218;51.408;7.208;2024-03-02T03:44:33;98215.13;;;18.59;37.21
4410;BME280;2218;51.408;7.208;2024-03-02T03:47:01;98215.13;;;18.59;37.04
4410;BME280;2218;51.408;7.208;2024-03-02T03:49:28;98220.41;;;18.59;37.17
4410;BME280;2218;51.408;7.208;2024-03-02T03:51:56;98225.66;;;18.59;37.12
4410;BME280;2218;51.408;7.208;2024-03-02T03:54:23;98234.38;;;18.59;37.09
4410;BME280;2218;51.408;7.208;2024-03-02T03:56:50;98229.97;;;18.60;36.99
4410;BME280;2218;51.408;7.208;2024-03-02T03:59:17;98230.91;;;18.59;36.87
4410;BME280;2218;51.408;7.208;2024-03-02T04:01:44;98230.91;;;18.59;36.74
4410;BME280;2218;51.408;7.208;2024-03-02T04:04:13;98236.19;;;18.59;36.95
4410;BME280;2218;51.408;7.208;2024-03-02T04:06:40;98234.53;;;18.58;36.92
4410;BME280;2218;51.408;7.208;2024-03-02T04:09:07;98229.28;;;18.58;37.13
4410;BME280;2218;51.408;7.208;2024-03-02T04:11:34;98231.06;;;18.57;36.81
4410;BME280;2218;51.408;7.208;2024-03-02T04:14:01;98244.22;;;18.57;37.01
4410;BME280;2218;51.408;7.208;2024-03-02T04:16:28;98228.44;;;18.57;37.01
4410;BME280;2218;51.408;7.208;2024-03-02T04:18:55;98225.97;;;18.56;36.73
4410;BME280;2218;51.408;7.208;2024-03-02T04:21:23;98237.31;;;18.56;36.71
4410;BME280;2218;51.408;7.208;2024-03-02T04:23:50;98235.50;;;18.57;36.88
4410;BME280;2218;51.408;7.208;2024-03-02T04:26:17;98241.75;;;18.56;37.10
4410;BME280;2218;51.408;7.208;2024-03-02T04:28:47;98247.81;;;18.56;36.77
4410;BME280;2218;51.408;7.208;2024-03-02T04:31:15;98240.91;;;18.55;36.85
4410;BME280;2218;51.408;7.208;2024-03-02T04:33:42;98247.81;;;18.56;36.77
4410;BME280;2218;51.408;7.208;2024-03-02T04:36:09;98241.75;;;18.56;36.98
4410;BME280;2218;51.408;7.208;2024-03-02T04:38:37;98234.81;;;18.55;37.01
4410;BME280;2218;51.408;7.208;2024-03-02T04:41:06;98247.00;;;18.56;36.93
4410;BME280;2218;51.408;7.208;2024-03-02T04:43:34;98252.25;;;18.56;36.92
4410;BME280;2218;51.408;7.208;2024-03-02T04:46:01;98255.88;;;18.55;36.94
4410;BME280;2218;51.408;7.208;2024-03-02T04:48:28;98261.13;;;18.55;36.72
4410;BME280;2218;51.408;7.208;2024-03-02T04:50:55;98255.88;;;18.55;36.97
4410;BME280;2218;51.408;7.208;2024-03-02T04:53:22;98252.38;;;18.54;36.85
4410;BME280;2218;51.408;7.208;2024-03-02T04:55:51;98260.28;;;18.54;36.81
4410;BME280;2218;51.408;7.208;2024-03-02T04:58:35;98256.81;;;18.54;36.99
4410;BME280;2218;51.408;7.208;2024-03-02T05:01:03;98255.16;;;18.53;36.91
4410;BME280;2218;51.408;7.208;2024-03-02T05:03:30;98263.03;;;18.53;36.77
4410;BME280;2218;51.408;7.208;2024-03-02T05:05:56;98265.69;;;18.53;36.77
4410;BME280;2218;51.408;7.208;2024-03-02T05:08:23;98269.97;;;18.54;36.77
4410;BME280;2218;51.408;7.208;2024-03-02T05:10:52;98269.97;;;18.54;36.80
4410;BME280;2218;51.408;7.208;2024-03-02T05:13:19;98257.78;;;18.53;36.91
4410;BME280;2218;51.408;7.208;2024-03-02T05:15:47;98263.03;;;18.53;36.77
4410;BME280;2218;51.408;7.208;2024-03-02T05:18:14;98271.78;;;18.53;37.05
4410;BME280;2218;51.408;7.208;2024-03-02T05:20:41;98269.13;;;18.53;37.15
4410;BME280;2218;51.408;7.208;2024-03-02T05:23:08;98266.50;;;18.53;37.19
4410;BME280;2218;51.408;7.208;2024-03-02T05:25:35;98265.69;;;18.53;36.95
4410;BME280;2218;51.408;7.208;2024-03-02T05:28:05;98268.31;;;18.53;36.95
4410;BME280;2218;51.408;7.208;2024-03-02T05:30:31;98268.31;;;18.53;36.74
4410;BME280;2218;51.408;7.208;2024-03-02T05:32:58;98274.41;;;18.53;36.98
4410;BME280;2218;51.408;7.208;2024-03-02T05:35:25;98280.50;;;18.54;37.02
4410;BME280;2218;51.408;7.208;2024-03-02T05:37:52;98283.25;;;18.52;36.80
4410;BME280;2218;51.408;7.208;2024-03-02T05:40:19;98274.41;;;18.53;36.87
4410;BME280;2218;51.408;7.208;2024-03-02T05:42:46;98274.41;;;18.53;36.95
4410;BME280;2218;51.408;7.208;2024-03-02T05:45:15;98282.19;;;18.55;37.22
4410;BME280;2218;51.408;7.208;2024-03-02T05:47:42;98280.50;;;18.54;36.75
4410;BME280;2218;51.408;7.208;2024-03-02T05:50:09;98278.00;;;18.52;37.04
4410;BME280;2218;51.408;7.208;2024-03-02T05:52:36;98280.50;;;18.54;37.06
4410;BME280;2218;51.408;7.208;2024-03-02T05:55:05;98275.22;;;18.54;37.03
4410;BME280;2218;51.408;7.208;2024-03-02T05:57:32;98262.91;;;18.54;36.89
4410;BME280;2218;51.408;7.208;2024-03-02T06:00:15;98253.34;;;18.53;36.83
4410;BME280;2218;51.408;7.208;2024-03-02T06:02:43;98263.88;;;18.53;36.74
4410;BME280;2218;51.408;7.208;2024-03-02T06:05:11;98268.31;;;18.53;36.83
4410;BME280;2218;51.408;7.208;2024-03-02T06:07:38;98269.13;;;18.53;36.74
4410;BME280;2218;51.408;7.208;2024-03-02T06:10:06;98274.53;;;18.52;37.00
4410;BME280;2218;51.408;7.208;2024-03-02T06:12:34;98281.47;;;18.53;36.78
4410;BME280;2218;51.408;7.208;2024-03-02T06:15:01;98283.25;;;18.52;37.14
4410;BME280;2218;51.408;7.208;2024-03-02T06:17:30;98282.44;;;18.52;37.13
4410;BME280;2218;51.408;7.208;2024-03-02T06:19:57;98280.63;;;18.52;37.05
4410;BME280;2218;51.408;7.208;2024-03-02T06:22:24;98282.44;;;18.52;36.78
4410;BME280;2218;51.408;7.208;2024-03-02T06:24:51;98277.19;;;18.52;36.76
4410;BME280;2218;51.408;7.208;2024-03-02T06:27:18;98287.69;;;18.52;36.79
4410;BME280;2218;51.408;7.208;2024-03-02T06:29:45;98279.81;;;18.52;36.80
4410;BME280;2218;51.408;7.208;2024-03-02T06:32:12;98277.19;;;18.52;36.94
4410;BME280;2218;51.408;7.208;2024-03-02T06:34:40;98283.41;;;18.51;37.22
4410;BME280;2218;51.408;7.208;2024-03-02T06:37:07;98286.88;;;18.51;37.12
4410;BME280;2218;51.408;7.208;2024-03-02T06:39:36;98296.56;;;18.51;36.89
4410;BME280;2218;51.408;7.208;2024-03-02T06:42:03;98307.09;;;18.51;36.95
4410;BME280;2218;51.408;7.208;2024-03-02T06:44:30;98310.41;;;18.53;36.95
4410;BME280;2218;51.408;7.208;2024-03-02T06:46:57;98307.78;;;18.53;36.82
4410;BME280;2218;51.408;7.208;2024-03-02T06:49:24;98311.22;;;18.53;36.87
4410;BME280;2218;51.408;7.208;2024-03-02T06:51:53;98307.63;;;18.54;36.77
4410;BME280;2218;51.408;7.208;2024-03-02T06:54:20;98312.78;;;18.56;36.86
4410;BME280;2218;51.408;7.208;2024-03-02T06:56:47;98313.44;;;18.58;36.81
4410;BME280;2218;51.408;7.208;2024-03-02T06:59:13;98313.44;;;18.58;37.05
4410;BME280;2218;51.408;7.208;2024-03-02T07:01:40;98316.81;;;18.60;36.85
4410;BME280;2218;51.408;7.208;2024-03-02T07:04:08;98321.91;;;18.62;36.86
4410;BME280;2218;51.408;7.208;2024-03-02T07:06:35;98333.00;;;18.65;36.87
4410;BME280;2218;51.408;7.208;2024-03-02T07:09:03;98324.16;;;18.66;37.27
4410;BME280;2218;51.408;7.208;2024-03-02T07:11:31;98323.16;;;18.67;36.81
4410;BME280;2218;51.408;7.208;2024-03-02T07:13:57;98325.69;;;18.69;36.62
4410;BME280;2218;51.408;7.208;2024-03-02T07:16:24;98324.75;;;18.70;36.90
4410;BME280;2218;51.408;7.208;2024-03-02T07:18:54;98324.44;;;18.73;36.95
4410;BME280;2218;51.408;7.208;2024-03-02T07:21:22;98328.75;;;18.74;36.75
4410;BME280;2218;51.408;7.208;2024-03-02T07:23:49;98342.63;;;18.76;36.85
4410;BME280;2218;51.408;7.208;2024-03-02T07:26:18;98343.28;;;18.78;36.93
4410;BME280;2218;51.408;7.208;2024-03-02T07:28:46;98336.22;;;18.78;36.98
4410;BME280;2218;51.408;7.208;2024-03-02T07:31:15;98339.56;;;18.80;37.05
4410;BME280;2218;51.408;7.208;2024-03-02T07:33:44;98342.91;;;18.82;36.64
4410;BME280;2218;51.408;7.208;2024-03-02T07:36:12;98344.56;;;18.83;36.99
4410;BME280;2218;51.408;7.208;2024-03-02T07:38:39;98348.84;;;18.84;36.76
4410;BME280;2218;51.408;7.208;2024-03-02T07:41:08;98346.09;;;18.86;36.91
4410;BME280;2218;51.408;7.208;2024-03-02T07:43:38;98342.34;;;18.89;36.86
4410;BME280;2218;51.408;7.208;2024-03-02T07:46:05;98337.06;;;18.89;36.58
4410;BME280;2218;51.408;7.208;2024-03-02T07:48:32;98338.75;;;18.90;36.75
4410;BME280;2218;51.408;7.208;2024-03-02T07:50:59;98337.78;;;18.91;36.48
4410;BME280;2218;51.408;7.208;2024-03-02T07:53:28;98336.81;;;18.92;36.76
4410;BME280;2218;51.408;7.208;2024-03-02T07:55:56;98345.38;;;18.94;36.66
4410;BME280;2218;51.408;7.208;2024-03-02T07:58:28;98340.13;;;18.94;36.65
4410;BME280;2218;51.408;7.208;2024-03-02T08:00:57;98340.13;;;18.94;36.41
4410;BME280;2218;51.408;7.208;2024-03-02T08:03:26;98343.47;;;18.96;36.31
4410;BME280;2218;51.408;7.208;2024-03-02T08:05:53;98353.03;;;18.97;36.65
4410;BME280;2218;51.408;7.208;2024-03-02T08:08:20;98357.31;;;18.98;36.62
4410;BME280;2218;51.408;7.208;2024-03-02T08:10:47;98354.69;;;18.98;36.42
4410;BME280;2218;51.408;7.208;2024-03-02T08:13:14;98359.81;;;18.99;36.33
4410;BME280;2218;51.408;7.208;2024-03-02T08:15:41;98355.41;;;19.00;36.59
4410;BME280;2218;51.408;7.208;2024-03-02T08:18:10;98345.53;;;19.02;36.53
4410;BME280;2218;51.408;7.208;2024-03-02T08:20:37;98349.16;;;19.01;36.55
4410;BME280;2218;51.408;7.208;2024-03-02T08:23:05;98348.19;;;19.02;36.45
4410;BME280;2218;51.408;7.208;2024-03-02T08:25:32;98357.88;;;19.01;36.73
4410;BME280;2218;51.408;7.208;2024-03-02T08:27:59;98360.50;;;19.01;36.51
4410;BME280;2218;51.408;7.208;2024-03-02T08:30:27;98358.72;;;19.02;36.69
4410;BME280;2218;51.408;7.208;2024-03-02T08:32:55;98359.53;;;19.02;36.53
4410;BME280;2218;51.408;7.208;2024-03-02T08:35:23;98359.53;;;19.02;36.45
4410;BME280;2218;51.408;7.208;2024-03-02T08:37:50;98370.91;;;19.03;36.52
4410;BME280;2218;51.408;7.208;2024-03-02T08:40:16;98369.09;;;19.03;36.64
4410;BME280;2218;51.408;7.208;2024-03-02T08:42:43;98377.81;;;19.04;36.59
4410;BME280;2218;51.408;7.208;2024-03-02T08:45:11;98370.75;;;19.04;36.79
4410;BME280;2218;51.408;7.208;2024-03-02T08:47:38;98368.97;;;19.05;36.87
4410;BME280;2218;51.408;7.208;2024-03-02T08:50:07;98376.88;;;19.05;36.66
4410;BME280;2218;51.408;7.208;2024-03-02T08:52:35;98373.28;;;19.06;36.82
4410;BME280;2218;51.408;7.208;2024-03-02T08:55:03;98377.72;;;19.05;37.04
4410;BME280;2218;51.408;7.208;2024-03-02T08:57:31;98376.88;;;19.05;36.75
4410;BME280;2218;51.408;7.208;2024-03-02T08:59:59;98368.97;;;19.05;36.80
4410;BME280;2218;51.408;7.208;2024-03-02T09:02:26;98375.91;;;19.06;36.81
4410;BME280;2218;51.408;7.208;2024-03-02T09:04:53;98368.13;;;19.04;36.74
4410;BME280;2218;51.408;7.208;2024-03-02T09:07:21;98365.47;;;19.04;36.87
4410;BME280;2218;51.408;7.208;2024-03-02T09:09:49;98378.53;;;19.06;36.82
4410;BME280;2218;51.408;7.208;2024-03-02T09:12:16;98378.66;;;19.04;36.60
4410;BME280;2218;51.408;7.208;2024-03-02T09:14:43;98391.69;;;19.06;36.65
4410;BME280;2218;51.408;7.208;2024-03-02T09:17:10;98391.69;;;19.06;36.91
4410;BME280;2218;51.408;7.208;2024-03-02T09:19:38;98384.78;;;19.05;36.70
4410;BME280;2218;51.408;7.208;2024-03-02T09:22:05;98384.78;;;19.05;36.75
4410;BME280;2218;51.408;7.208;2024-03-02T09:24:32;98380.34;;;19.05;36.96
4410;BME280;2218;51.408;7.208;2024-03-02T09:27:01;98383.81;;;19.06;36.96
4410;BME280;2218;51.408;7.208;2024-03-02T09:29:28;98374.25;;;19.05;37.05
4410;BME280;2218;51.408;7.208;2024-03-02T09:31:55;98382.16;;;19.05;36.65
4410;BME280;2218;51.408;7.208;2024-03-02T09:34:22;98391.69;;;19.06;36.96
4410;BME280;2218;51.408;7.208;2024-03-02T09:36:50;98390.97;;;19.04;36.84
4410;BME280;2218;51.408;7.208;2024-03-02T09:39:18;98386.56;;;19.04;36.80
4410;BME280;2218;51.408;7.208;2024-03-02T09:41:45;98388.34;;;19.04;36.71
4410;BME280;2218;51.408;7.208;2024-03-02T09:44:14;98376.00;;;19.04;37.07
4410;BME280;2218;51.408;7.208;2024-03-02T09:46:41;98379.63;;;19.03;36.82
4410;BME280;2218;51.408;7.208;2024-03-02T09:49:09;98383.09;;;19.04;36.94
4410;BME280;2218;51.408;7.208;2024-03-02T09:51:37;98381.44;;;19.03;36.85
4410;BME280;2218;51.408;7.208;2024-03-02T09:54:04;98385.88;;;19.02;36.98
4410;BME280;2218;51.408;7.208;2024-03-02T09:56:32;98388.50;;;19.02;37.14
4410;BME280;2218;51.408;7.208;2024-03-02T09:58:59;98387.66;;;19.02;37.07
4410;BME280;2218;51.408;7.208;2024-03-02T10:01:28;98384.22;;;19.01;36.75
4410;BME280;2218;51.408;7.208;2024-03-02T10:03:57;98372.84;;;19.01;36.73
4410;BME280;2218;51.408;7.208;2024-03-02T10:06:27;98373.69;;;19.01;36.92
4410;BME280;2218;51.408;7.208;2024-03-02T10:08:56;98368.41;;;19.01;36.94
4410;BME280;2218;51.408;7.208;2024-03-02T10:11:27;98372.03;;;19.00;36.82
4410;BME280;2218;51.408;7.208;2024-03-02T10:14:08;98378.13;;;19.01;36.86
4410;BME280;2218;51.408;7.208;2024-03-02T10:16:39;98380.75;;;19.01;36.58
4410;BME280;2218;51.408;7.208;2024-03-02T10:19:17;98377.28;;;19.00;36.82
4410;BME280;2218;51.408;7.208;2024-03-02T10:21:46;98375.47;;;19.01;37.00
4410;BME280;2218;51.408;7.208;2024-03-02T10:24:13;98371.19;;;19.00;37.08
4410;BME280;2218;51.408;7.208;2024-03-02T10:26:40;98371.19;;;19.00;37.03
4410;BME280;2218;51.408;7.208;2024-03-02T10:29:08;98369.50;;;18.99;37.17
4410;BME280;2218;51.408;7.208;2024-03-02T10:31:38;98373.81;;;19.00;37.08
4410;BME280;2218;51.408;7.208;2024-03-02T10:34:06;98372.13;;;18.99;37.00
4410;BME280;2218;51.408;7.208;2024-03-02T10:36:34;98374.78;;;18.99;37.09
4410;BME280;2218;51.408;7.208;2024-03-02T10:39:02;98374.78;;;18.99;36.86
4410;BME280;2218;51.408;7.208;2024-03-02T10:41:33;98361.59;;;18.99;37.24
4410;BME280;2218;51.408;7.208;2024-03-02T10:44:03;98365.94;;;19.00;37.04
4410;BME280;2218;51.408;7.208;2024-03-02T10:46:33;98368.56;;;19.00;37.18
4410;BME280;2218;51.408;7.208;2024-03-02T10:49:03;98364.25;;;18.99;37.03
4410;BME280;2218;51.408;7.208;2024-03-02T10:51:32;98363.41;;;18.98;37.08
4410;BME280;2218;51.408;7.208;2024-03-02T10:54:03;98361.59;;;18.99;36.99
4410;BME280;2218;51.408;7.208;2024-03-02T10:56:33;98358.97;;;18.99;37.08
4410;BME280;2218;51.408;7.208;2024-03-02T10:59:11;98364.25;;;18.99;37.24
4410;BME280;2218;51.408;7.208;2024-03-02T11:01:47;98363.41;;;18.98;37.00
4410;BME280;2218;51.408;7.208;2024-03-02T11:04:18;98358.16;;;18.98;37.12
4410;BME280;2218;51.408;7.208;2024-03-02T11:06:49;98356.50;;;18.97;37.28
4410;BME280;2218;51.408;7.208;2024-03-02T11:09:21;98348.44;;;18.99;37.11
4410;BME280;2218;51.408;7.208;2024-03-02T11:12:00;98352.88;;;18.98;37.27
4410;BME280;2218;51.408;7.208;2024-03-02T11:14:31;98357.31;;;18.98;37.13
4410;BME280;2218;51.408;7.208;2024-03-02T11:17:01;98346.78;;;18.98;37.19
4410;BME280;2218;51.408;7.208;2024-03-02T11:19:32;98347.63;;;18.98;37.34
4410;BME280;2218;51.408;7.208;2024-03-02T11:22:03;98348.44;;;18.99;37.20
4410;BME280;2218;51.408;7.208;2024-03-02T11:24:33;98351.06;;;18.99;37.07
4410;BME280;2218;51.408;7.208;2024-03-02T11:27:01;98344.16;;;18.98;37.08
4410;BME280;2218;51.408;7.208;2024-03-02T11:29:46;98344.16;;;18.98;36.96
4410;BME280;2218;51.408;7.208;2024-03-02T11:32:20;98336.25;;;18.98;37.10
4410;BME280;2218;51.408;7.208;2024-03-02T11:34:51;98345.81;;;18.99;37.44
4410;BME280;2218;51.408;7.208;2024-03-02T11:37:20;98337.09;;;18.98;37.13
4410;BME280;2218;51.408;7.208;2024-03-02T11:39:49;98342.34;;;18.98;37.05
4410;BME280;2218;51.408;7.208;2024-03-02T11:42:17;98338.88;;;18.98;37.41
4410;BME280;2218;51.408;7.208;2024-03-02T11:44:46;98343.19;;;18.99;37.05
4410;BME280;2218;51.408;7.208;2024-03-02T11:47:15;98337.91;;;18.99;37.17
4410;BME280;2218;51.408;7.208;2024-03-02T11:49:45;98337.91;;;18.99;37.10
4410;BME280;2218;51.408;7.208;2024-03-02T11:52:15;98335.44;;;18.97;37.18
4410;BME280;2218;51.408;7.208;2024-03-02T11:54:45;98335.28;;;18.99;37.82
4410;BME280;2218;51.408;7.208;2024-03-02T11:57:18;98333.47;;;18.99;37.37
4410;BME280;2218;51.408;7.208;2024-03-02T11:59:48;98329.19;;;18.98;37.10
4410;BME280;2218;51.408;7.208;2024-03-02T12:02:18;98322.13;;;18.99;37.00
4410;BME280;2218;51.408;7.208;2024-03-02T12:04:47;98332.66;;;18.99;36.97
4410;BME280;2218;51.408;7.208;2024-03-02T12:07:20;98330.00;;;18.99;37.12
4410;BME280;2218;51.408;7.208;2024-03-02T12:09:48;98316.84;;;18.99;37.32
4410;BME280;2218;51.408;7.208;2024-03-02T12:12:15;98322.13;;;18.99;37.20
4410;BME280;2218;51.408;7.208;2024-03-02T12:14:52;98316.84;;;18.99;37.35
4410;BME280;2218;51.408;7.208;2024-03-02T12:17:21;98313.28;;;19.00;37.51
4410;BME280;2218;51.408;7.208;2024-03-02T12:19:48;98305.50;;;18.98;37.13
4410;BME280;2218;51.408;7.208;2024-03-02T12:22:16;98314.22;;;18.99;37.32
4410;BME280;2218;51.408;7.208;2024-03-02T12:24:44;98316.84;;;18.99;37.12
4410;BME280;2218;51.408;7.208;2024-03-02T12:27:15;98321.16;;;19.00;37.13
4410;BME280;2218;51.408;7.208;2024-03-02T12:29:42;98318.53;;;19.00;37.11
4410;BME280;2218;51.408;7.208;2024-03-02T12:32:10;98316.84;;;18.99;37.30
4410;BME280;2218;51.408;7.208;2024-03-02T12:34:38;98311.59;;;18.99;37.42
4410;BME280;2218;51.408;7.208;2024-03-02T12:37:05;98300.22;;;18.98;37.20
4410;BME280;2218;51.408;7.208;2024-03-02T12:39:32;98306.31;;;18.99;37.30
4410;BME280;2218;51.408;7.208;2024-03-02T12:42:03;98301.06;;;18.99;37.30
4410;BME280;2218;51.408;7.208;2024-03-02T12:44:30;98312.41;;;18.99;37.20
4410;BME280;2218;51.408;7.208;2024-03-02T12:46:57;98301.06;;;18.99;37.53
4410;BME280;2218;51.408;7.208;2024-03-02T12:49:24;98310.75;;;18.98;37.34
4410;BME280;2218;51.408;7.208;2024-03-02T12:51:53;98299.25;;;18.99;37.24
4410;BME280;2218;51.408;7.208;2024-03-02T12:54:22;98295.78;;;18.99;37.16
4410;BME280;2218;51.408;7.208;2024-03-02T12:56:51;98292.22;;;19.00;37.48
4410;BME280;2218;51.408;7.208;2024-03-02T12:59:24;98281.69;;;19.00;37.19
4410;BME280;2218;51.408;7.208;2024-03-02T13:01:53;98278.34;;;18.98;37.50
4410;BME280;2218;51.408;7.208;2024-03-02T13:04:23;98285.25;;;18.99;37.48
4410;BME280;2218;51.408;7.208;2024-03-02T13:06:52;98289.69;;;18.98;37.46
4410;BME280;2218;51.408;7.208;2024-03-02T13:09:19;98291.34;;;18.99;37.18
4410;BME280;2218;51.408;7.208;2024-03-02T13:11:46;98296.63;;;18.99;37.50
4410;BME280;2218;51.408;7.208;2024-03-02T13:14:14;98287.06;;;18.98;37.41
4410;BME280;2218;51.408;7.208;2024-03-02T13:16:44;98284.44;;;18.98;37.48
4410;BME280;2218;51.408;7.208;2024-03-02T13:19:13;98287.06;;;18.98;37.38
4410;BME280;2218;51.408;7.208;2024-03-02T13:21:39;98284.44;;;18.98;37.32
4410;BME280;2218;51.408;7.208;2024-03-02T13:24:07;98285.25;;;18.99;37.45
4410;BME280;2218;51.408;7.208;2024-03-02T13:26:34;98283.59;;;18.98;37.46
4410;BME280;2218;51.408;7.208;2024-03-02T13:29:01;98291.34;;;18.99;37.19